sensor_id;sensor_type;location;lat;lon;timestamp;P1;durP1;ratioP1;P2;durP2;ratioP2
1601;SDS011;794;48.592;9.634;2024-01-06T00:00:17;7.90;;;2.97;;
1601;SDS011;794;48.592;9.634;2024-01-06T00:02:46;6.17;;;4.10;;
1601;SDS011;794;48.592;9.634;2024-01-06T00:05:13;6.13;;;3.50;;
1601;SDS011;794;48.592;9.634;2024-01-06T00:07:40;6.97;;;4.27;;
1601;SDS011;794;48.592;9.634;2024-01-06T00:10:08;5.50;;;4.10;;
1601;SDS011;794;48.592;9.634;2024-01-06T00:12:36;8.70;;;5.43;;
1601;SDS011;794;48.592;9.634;2024-01-06T00:15:04;6.87;;;4.73;;
1601;SDS011;794;48.592;9.634;2024-01-06T00:17:32;9.07;;;5.93;;
1601;SDS011;794;48.592;9.634;2024-01-06T00:19:59;11.30;;;5.73;;
1601;SDS011;794;48.592;9.634;2024-01-06T00:22:27;8.63;;;5.10;;
1601;SDS011;794;48.592;9.634;2024-01-06T00:24:54;4.70;;;3.60;;
1601;SDS011;794;48.592;9.634;2024-01-06T00:27:22;5.93;;;4.00;;
1601;SDS011;794;48.592;9.634;2024-01-06T00:29:51;7.60;;;4.90;;
1601;SDS011;794;48.592;9.634;2024-01-06T00:32:18;4.77;;;4.17;;
1601;SDS011;794;48.592;9.634;2024-01-06T00:34:45;7.20;;;4.17;;
1601;SDS011;794;48.592;9.634;2024-01-06T00:37:13;4.17;;;3.77;;
1601;SDS011;794;48.592;9.634;2024-01-06T00:39:40;6.00;;;4.43;;
1601;SDS011;794;48.592;9.634;2024-01-06T00:42:07;5.83;;;4.47;;
1601;SDS011;794;48.592;9.634;2024-01-06T00:44:35;5.33;;;4.47;;
1601;SDS011;794;48.592;9.634;2024-01-06T00:47:04;5.13;;;3.57;;
1601;SDS011;794;48.592;9.634;2024-01-06T00:49:31;4.40;;;3.73;;
1601;SDS011;794;48.592;9.634;2024-01-06T00:51:59;6.73;;;4.30;;
1601;SDS011;794;48.592;9.634;2024-01-06T00:54:27;7.37;;;4.33;;
1601;SDS011;794;48.592;9.634;2024-01-06T00:56:54;5.80;;;5.10;;
1601;SDS011;794;48.592;9.634;2024-01-06T00:59:21;4.37;;;3.93;;
1601;SDS011;794;48.592;9.634;2024-01-06T01:01:48;5.03;;;4.53;;
1601;SDS011;794;48.592;9.634;2024-01-06T01:04:17;6.63;;;4.20;;
1601;SDS011;794;48.592;9.634;2024-01-06T01:06:44;4.50;;;3.57;;
1601;SDS011;794;48.592;9.634;2024-01-06T01:09:11;3.60;;;3.17;;
1601;SDS011;794;48.592;9.634;2024-01-06T01:11:39;6.47;;;3.77;;
1601;SDS011;794;48.592;9.634;2024-01-06T01:14:06;8.50;;;4.17;;
1601;SDS011;794;48.592;9.634;2024-01-06T01:16:33;4.40;;;3.57;;
1601;SDS011;794;48.592;9.634;2024-01-06T01:19:01;3.80;;;3.10;;
1601;SDS011;794;48.592;9.634;2024-01-06T01:21:29;7.07;;;3.93;;
1601;SDS011;794;48.592;9.634;2024-01-06T01:23:56;4.67;;;2.87;;
1601;SDS011;794;48.592;9.634;2024-01-06T01:26:24;7.80;;;2.60;;
1601;SDS011;794;48.592;9.634;2024-01-06T01:28:51;5.40;;;2.93;;
1601;SDS011;794;48.592;9.634;2024-01-06T01:31:18;3.53;;;2.67;;
1601;SDS011;794;48.592;9.634;2024-01-06T01:33:46;3.83;;;2.47;;
1601;SDS011;794;48.592;9.634;2024-01-06T01:36:13;2.87;;;2.50;;
1601;SDS011;794;48.592;9.634;2024-01-06T01:38:41;9.53;;;2.97;;
1601;SDS011;794;48.592;9.634;2024-01-06T01:41:08;6.20;;;3.47;;
1601;SDS011;794;48.592;9.634;2024-01-06T01:43:35;4.53;;;2.90;;
1601;SDS011;794;48.592;9.634;2024-01-06T01:46:03;10.50;;;3.43;;
1601;SDS011;794;48.592;9.634;2024-01-06T01:48:30;5.30;;;2.93;;
1601;SDS011;794;48.592;9.634;2024-01-06T01:50:59;5.57;;;3.30;;
1601;SDS011;794;48.592;9.634;2024-01-06T01:53:26;3.40;;;3.10;;
1601;SDS011;794;48.592;9.634;2024-01-06T01:55:57;3.83;;;3.20;;
1601;SDS011;794;48.592;9.634;2024-01-06T01:58:24;5.57;;;3.70;;
1601;SDS011;794;48.592;9.634;2024-01-06T02:00:52;4.37;;;3.67;;
1601;SDS011;794;48.592;9.634;2024-01-06T02:03:19;7.27;;;3.30;;
1601;SDS011;794;48.592;9.634;2024-01-06T02:05:48;5.93;;;3.67;;
1601;SDS011;794;48.592;9.634;2024-01-06T02:08:15;4.47;;;3.60;;
1601;SDS011;794;48.592;9.634;2024-01-06T02:10:43;10.20;;;4.00;;
1601;SDS011;794;48.592;9.634;2024-01-06T02:13:12;6.73;;;3.00;;
1601;SDS011;794;48.592;9.634;2024-01-06T02:15:39;3.77;;;2.60;;
1601;SDS011;794;48.592;9.634;2024-01-06T02:18:06;2.67;;;2.10;;
1601;SDS011;794;48.592;9.634;2024-01-06T02:20:33;6.70;;;2.60;;
1601;SDS011;794;48.592;9.634;2024-01-06T02:23:02;5.73;;;3.13;;
1601;SDS011;794;48.592;9.634;2024-01-06T02:25:29;6.47;;;2.87;;
1601;SDS011;794;48.592;9.634;2024-01-06T02:27:57;8.97;;;2.07;;
1601;SDS011;794;48.592;9.634;2024-01-06T02:30:24;5.47;;;2.50;;
1601;SDS011;794;48.592;9.634;2024-01-06T02:32:51;5.10;;;2.83;;
1601;SDS011;794;48.592;9.634;2024-01-06T02:35:19;6.57;;;3.70;;
1601;SDS011;794;48.592;9.634;2024-01-06T02:37:46;10.00;;;2.83;;
1601;SDS011;794;48.592;9.634;2024-01-06T02:40:15;3.00;;;2.70;;
1601;SDS011;794;48.592;9.634;2024-01-06T02:42:42;6.30;;;3.43;;
1601;SDS011;794;48.592;9.634;2024-01-06T02:45:09;9.53;;;2.00;;
1601;SDS011;794;48.592;9.634;2024-01-06T02:47:37;5.00;;;2.70;;
1601;SDS011;794;48.592;9.634;2024-01-06T02:50:04;2.43;;;2.03;;
1601;SDS011;794;48.592;9.634;2024-01-06T02:52:32;4.17;;;2.50;;
1601;SDS011;794;48.592;9.634;2024-01-06T02:54:59;2.33;;;2.10;;
1601;SDS011;794;48.592;9.634;2024-01-06T02:57:29;5.67;;;2.30;;
1601;SDS011;794;48.592;9.634;2024-01-06T02:59:56;4.53;;;1.53;;
1601;SDS011;794;48.592;9.634;2024-01-06T03:02:23;2.43;;;1.83;;
1601;SDS011;794;48.592;9.634;2024-01-06T03:04:51;2.50;;;1.70;;
1601;SDS011;794;48.592;9.634;2024-01-06T03:07:18;4.13;;;2.67;;
1601;SDS011;794;48.592;9.634;2024-01-06T03:09:45;3.97;;;2.47;;
1601;SDS011;794;48.592;9.634;2024-01-06T03:12:12;2.43;;;1.73;;
1601;SDS011;794;48.592;9.634;2024-01-06T03:14:41;6.10;;;1.87;;
1601;SDS011;794;48.592;9.634;2024-01-06T03:17:08;2.43;;;1.73;;
1601;SDS011;794;48.592;9.634;2024-01-06T03:19:35;3.30;;;1.73;;
1601;SDS011;794;48.592;9.634;2024-01-06T03:22:03;4.37;;;1.90;;
1601;SDS011;794;48.592;9.634;2024-01-06T03:24:30;3.33;;;1.70;;
1601;SDS011;794;48.592;9.634;2024-01-06T03:26:57;4.73;;;2.40;;
1601;SDS011;794;48.592;9.634;2024-01-06T03:29:24;2.10;;;1.90;;
1601;SDS011;794;48.592;9.634;2024-01-06T03:31:53;3.23;;;2.17;;
1601;SDS011;794;48.592;9.634;2024-01-06T03:34:20;2.93;;;1.73;;
1601;SDS011;794;48.592;9.634;2024-01-06T03:36:48;2.40;;;1.97;;
1601;SDS011;794;48.592;9.634;2024-01-06T03:39:15;5.37;;;2.60;;
1601;SDS011;794;48.592;9.634;2024-01-06T03:41:42;4.50;;;2.10;;
1601;SDS011;794;48.592;9.634;2024-01-06T03:44:09;5.13;;;2.03;;
1601;SDS011;794;48.592;9.634;2024-01-06T03:46:37;5.20;;;2.53;;
1601;SDS011;794;48.592;9.634;2024-01-06T03:49:05;2.60;;;2.30;;
1601;SDS011;794;48.592;9.634;2024-01-06T03:51:32;4.57;;;2.50;;
1601;SDS011;794;48.592;9.634;2024-01-06T03:54:00;3.00;;;1.60;;
1601;SDS011;794;48.592;9.634;2024-01-06T03:56:27;3.67;;;2.10;;
1601;SDS011;794;48.592;9.634;2024-01-06T03:58:54;5.70;;;3.33;;
1601;SDS011;794;48.592;9.634;2024-01-06T04:01:21;3.27;;;1.90;;
1601;SDS011;794;48.592;9.634;2024-01-06T04:03:48;3.80;;;2.30;;
1601;SDS011;794;48.592;9.634;2024-01-06T04:06:17;3.40;;;1.97;;
1601;SDS011;794;48.592;9.634;2024-01-06T04:08:44;4.30;;;2.13;;
1601;SDS011;794;48.592;9.634;2024-01-06T04:11:11;3.63;;;3.10;;
1601;SDS011;794;48.592;9.634;2024-01-06T04:13:38;3.20;;;2.30;;
1601;SDS011;794;48.592;9.634;2024-01-06T04:16:05;2.80;;;1.80;;
1601;SDS011;794;48.592;9.634;2024-01-06T04:18:33;4.00;;;2.53;;
1601;SDS011;794;48.592;9.634;2024-01-06T04:21:00;2.87;;;2.20;;
1601;SDS011;794;48.592;9.634;2024-01-06T04:23:28;2.87;;;2.10;;
1601;SDS011;794;48.592;9.634;2024-01-06T04:25:55;5.00;;;2.40;;
1601;SDS011;794;48.592;9.634;2024-01-06T04:28:23;2.90;;;1.50;;
1601;SDS011;794;48.592;9.634;2024-01-06T04:30:50;3.07;;;1.93;;
1601;SDS011;794;48.592;9.634;2024-01-06T04:33:17;3.73;;;2.10;;
1601;SDS011;794;48.592;9.634;2024-01-06T04:35:45;4.47;;;2.00;;
1601;SDS011;794;48.592;9.634;2024-01-06T04:38:12;3.40;;;2.27;;
1601;SDS011;794;48.592;9.634;2024-01-06T04:40:40;8.00;;;2.20;;
1601;SDS011;794;48.592;9.634;2024-01-06T04:43:08;3.10;;;1.70;;
1601;SDS011;794;48.592;9.634;2024-01-06T04:45:35;5.23;;;2.17;;
1601;SDS011;794;48.592;9.634;2024-01-06T04:48:03;4.10;;;2.10;;
1601;SDS011;794;48.592;9.634;2024-01-06T04:50:31;4.70;;;2.30;;
1601;SDS011;794;48.592;9.634;2024-01-06T04:52:58;3.90;;;2.20;;
1601;SDS011;794;48.592;9.634;2024-01-06T04:55:25;3.30;;;2.83;;
1601;SDS011;794;48.592;9.634;2024-01-06T04:57:54;3.53;;;2.20;;
1601;SDS011;794;48.592;9.634;2024-01-06T05:00:21;3.97;;;2.72;;
1601;SDS011;794;48.592;9.634;2024-01-06T05:02:48;2.60;;;2.00;;
1601;SDS011;794;48.592;9.634;2024-01-06T05:05:15;3.03;;;1.63;;
1601;SDS011;794;48.592;9.634;2024-01-06T05:07:42;5.83;;;2.53;;
1601;SDS011;794;48.592;9.634;2024-01-06T05:10:09;2.90;;;2.27;;
1601;SDS011;794;48.592;9.634;2024-01-06T05:12:36;6.97;;;1.77;;
1601;SDS011;794;48.592;9.634;2024-01-06T05:15:06;4.33;;;1.77;;
1601;SDS011;794;48.592;9.634;2024-01-06T05:17:33;2.97;;;1.97;;
1601;SDS011;794;48.592;9.634;2024-01-06T05:20:00;2.30;;;1.70;;
1601;SDS011;794;48.592;9.634;2024-01-06T05:22:28;4.10;;;2.40;;
1601;SDS011;794;48.592;9.634;2024-01-06T05:24:56;3.67;;;2.03;;
1601;SDS011;794;48.592;9.634;2024-01-06T05:27:23;4.97;;;1.80;;
1601;SDS011;794;48.592;9.634;2024-01-06T05:29:50;4.70;;;2.33;;
1601;SDS011;794;48.592;9.634;2024-01-06T05:32:19;4.93;;;1.70;;
1601;SDS011;794;48.592;9.634;2024-01-06T05:34:46;3.67;;;2.00;;
1601;SDS011;794;48.592;9.634;2024-01-06T05:37:13;6.33;;;2.57;;
1601;SDS011;794;48.592;9.634;2024-01-06T05:39:40;2.10;;;1.70;;
1601;SDS011;794;48.592;9.634;2024-01-06T05:42:08;3.97;;;1.50;;
1601;SDS011;794;48.592;9.634;2024-01-06T05:44:36;5.37;;;1.80;;
1601;SDS011;794;48.592;9.634;2024-01-06T05:47:04;5.93;;;2.10;;
1601;SDS011;794;48.592;9.634;2024-01-06T05:49:33;2.80;;;1.70;;
1601;SDS011;794;48.592;9.634;2024-01-06T05:52:00;2.60;;;1.93;;
1601;SDS011;794;48.592;9.634;2024-01-06T05:54:27;5.30;;;1.87;;
1601;SDS011;794;48.592;9.634;2024-01-06T05:56:55;3.70;;;1.63;;
1601;SDS011;794;48.592;9.634;2024-01-06T05:59:22;4.43;;;1.90;;
1601;SDS011;794;48.592;9.634;2024-01-06T06:01:49;3.03;;;1.23;;
1601;SDS011;794;48.592;9.634;2024-01-06T06:04:17;2.47;;;1.50;;
1601;SDS011;794;48.592;9.634;2024-01-06T06:06:46;2.60;;;1.50;;
1601;SDS011;794;48.592;9.634;2024-01-06T06:09:13;2.20;;;1.50;;
1601;SDS011;794;48.592;9.634;2024-01-06T06:11:40;6.33;;;2.20;;
1601;SDS011;794;48.592;9.634;2024-01-06T06:14:08;2.87;;;1.20;;
1601;SDS011;794;48.592;9.634;2024-01-06T06:16:35;1.90;;;1.50;;
1601;SDS011;794;48.592;9.634;2024-01-06T06:19:02;4.53;;;2.00;;
1601;SDS011;794;48.592;9.634;2024-01-06T06:21:30;2.83;;;1.70;;
1601;SDS011;794;48.592;9.634;2024-01-06T06:23:58;1.43;;;1.33;;
1601;SDS011;794;48.592;9.634;2024-01-06T06:26:25;1.63;;;1.27;;
1601;SDS011;794;48.592;9.634;2024-01-06T06:28:53;4.83;;;2.07;;
1601;SDS011;794;48.592;9.634;2024-01-06T06:31:20;4.73;;;1.13;;
1601;SDS011;794;48.592;9.634;2024-01-06T06:33:47;4.07;;;2.43;;
1601;SDS011;794;48.592;9.634;2024-01-06T06:36:14;1.50;;;1.40;;
1601;SDS011;794;48.592;9.634;2024-01-06T06:38:42;2.97;;;2.30;;
1601;SDS011;794;48.592;9.634;2024-01-06T06:41:10;4.67;;;2.20;;
1601;SDS011;794;48.592;9.634;2024-01-06T06:43:37;4.80;;;3.40;;
1601;SDS011;794;48.592;9.634;2024-01-06T06:46:04;3.97;;;2.00;;
1601;SDS011;794;48.592;9.634;2024-01-06T06:48:32;6.43;;;2.37;;
1601;SDS011;794;48.592;9.634;2024-01-06T06:51:00;5.33;;;2.47;;
1601;SDS011;794;48.592;9.634;2024-01-06T06:53:28;3.43;;;2.13;;
1601;SDS011;794;48.592;9.634;2024-01-06T06:55:55;1.97;;;1.40;;
1601;SDS011;794;48.592;9.634;2024-01-06T06:58:24;4.20;;;2.23;;
1601;SDS011;794;48.592;9.634;2024-01-06T07:00:51;3.27;;;1.50;;
1601;SDS011;794;48.592;9.634;2024-01-06T07:03:19;5.70;;;2.43;;
1601;SDS011;794;48.592;9.634;2024-01-06T07:05:46;4.87;;;2.10;;
1601;SDS011;794;48.592;9.634;2024-01-06T07:08:13;2.70;;;2.10;;
1601;SDS011;794;48.592;9.634;2024-01-06T07:10:40;4.13;;;2.20;;
1601;SDS011;794;48.592;9.634;2024-01-06T07:13:08;2.43;;;1.70;;
1601;SDS011;794;48.592;9.634;2024-01-06T07:15:36;6.23;;;5.63;;
1601;SDS011;794;48.592;9.634;2024-01-06T07:18:03;12.60;;;10.57;;
1601;SDS011;794;48.592;9.634;2024-01-06T07:20:33;16.33;;;8.80;;
1601;SDS011;794;48.592;9.634;2024-01-06T07:23:00;4.47;;;3.93;;
1601;SDS011;794;48.592;9.634;2024-01-06T07:25:28;3.70;;;3.23;;
1601;SDS011;794;48.592;9.634;2024-01-06T07:27:56;3.90;;;2.83;;
1601;SDS011;794;48.592;9.634;2024-01-06T07:30:23;4.17;;;2.77;;
1601;SDS011;794;48.592;9.634;2024-01-06T07:32:52;2.50;;;2.00;;
1601;SDS011;794;48.592;9.634;2024-01-06T07:35:19;3.00;;;2.17;;
1601;SDS011;794;48.592;9.634;2024-01-06T07:37:46;5.50;;;2.80;;
1601;SDS011;794;48.592;9.634;2024-01-06T07:40:13;5.70;;;1.80;;
1601;SDS011;794;48.592;9.634;2024-01-06T07:42:41;3.17;;;2.47;;
1601;SDS011;794;48.592;9.634;2024-01-06T07:45:09;2.63;;;1.77;;
1601;SDS011;794;48.592;9.634;2024-01-06T07:47:38;5.47;;;1.80;;
1601;SDS011;794;48.592;9.634;2024-01-06T07:50:07;2.57;;;1.87;;
1601;SDS011;794;48.592;9.634;2024-01-06T07:52:35;5.37;;;4.23;;
1601;SDS011;794;48.592;9.634;2024-01-06T07:55:02;3.80;;;3.40;;
1601;SDS011;794;48.592;9.634;2024-01-06T07:57:29;12.17;;;6.30;;
1601;SDS011;794;48.592;9.634;2024-01-06T07:59:57;2.60;;;2.40;;
1601;SDS011;794;48.592;9.634;2024-01-06T08:02:24;4.90;;;2.30;;
1601;SDS011;794;48.592;9.634;2024-01-06T08:04:51;15.43;;;6.13;;
1601;SDS011;794;48.592;9.634;2024-01-06T08:07:20;3.97;;;2.37;;
1601;SDS011;794;48.592;9.634;2024-01-06T08:09:47;4.17;;;2.60;;
1601;SDS011;794;48.592;9.634;2024-01-06T08:12:14;5.73;;;2.40;;
1601;SDS011;794;48.592;9.634;2024-01-06T08:14:42;2.90;;;2.47;;
1601;SDS011;794;48.592;9.634;2024-01-06T08:17:09;3.97;;;2.80;;
1601;SDS011;794;48.592;9.634;2024-01-06T08:19:36;5.47;;;2.70;;
1601;SDS011;794;48.592;9.634;2024-01-06T08:22:03;2.90;;;1.90;;
1601;SDS011;794;48.592;9.634;2024-01-06T08:24:32;3.60;;;2.40;;
1601;SDS011;794;48.592;9.634;2024-01-06T08:26:59;3.20;;;2.73;;
1601;SDS011;794;48.592;9.634;2024-01-06T08:29:26;3.77;;;2.07;;
1601;SDS011;794;48.592;9.634;2024-01-06T08:31:54;9.60;;;2.67;;
1601;SDS011;794;48.592;9.634;2024-01-06T08:34:21;2.30;;;2.10;;
1601;SDS011;794;48.592;9.634;2024-01-06T08:36:48;4.13;;;3.20;;
1601;SDS011;794;48.592;9.634;2024-01-06T08:39:15;3.50;;;3.03;;
1601;SDS011;794;48.592;9.634;2024-01-06T08:41:44;3.70;;;2.30;;
1601;SDS011;794;48.592;9.634;2024-01-06T08:44:11;4.03;;;1.80;;
1601;SDS011;794;48.592;9.634;2024-01-06T08:46:39;11.50;;;2.03;;
1601;SDS011;794;48.592;9.634;2024-01-06T08:49:07;11.60;;;2.57;;
1601;SDS011;794;48.592;9.634;2024-01-06T08:51:34;2.27;;;2.13;;
1601;SDS011;794;48.592;9.634;2024-01-06T08:54:01;2.67;;;2.00;;
1601;SDS011;794;48.592;9.634;2024-01-06T08:56:30;2.67;;;2.47;;
1601;SDS011;794;48.592;9.634;2024-01-06T08:58:59;2.43;;;2.23;;
1601;SDS011;794;48.592;9.634;2024-01-06T09:01:25;2.30;;;1.90;;
1601;SDS011;794;48.592;9.634;2024-01-06T09:03:53;4.33;;;2.10;;
1601;SDS011;794;48.592;9.634;2024-01-06T09:06:20;1.73;;;1.47;;
1601;SDS011;794;48.592;9.634;2024-01-06T09:08:48;2.57;;;1.90;;
1601;SDS011;794;48.592;9.634;2024-01-06T09:11:15;3.87;;;2.00;;
1601;SDS011;794;48.592;9.634;2024-01-06T09:13:42;4.57;;;2.20;;
1601;SDS011;794;48.592;9.634;2024-01-06T09:16:11;4.87;;;2.30;;
1601;SDS011;794;48.592;9.634;2024-01-06T09:18:38;4.60;;;1.93;;
1601;SDS011;794;48.592;9.634;2024-01-06T09:21:05;4.83;;;1.90;;
1601;SDS011;794;48.592;9.634;2024-01-06T09:23:33;3.03;;;1.57;;
1601;SDS011;794;48.592;9.634;2024-01-06T09:26:00;2.00;;;1.90;;
1601;SDS011;794;48.592;9.634;2024-01-06T09:28:28;4.20;;;2.20;;
1601;SDS011;794;48.592;9.634;2024-01-06T09:30:55;8.10;;;2.03;;
1601;SDS011;794;48.592;9.634;2024-01-06T09:33:24;4.03;;;1.93;;
1601;SDS011;794;48.592;9.634;2024-01-06T09:35:51;2.13;;;1.93;;
1601;SDS011;794;48.592;9.634;2024-01-06T09:38:18;3.37;;;1.70;;
1601;SDS011;794;48.592;9.634;2024-01-06T09:40:45;8.03;;;2.40;;
1601;SDS011;794;48.592;9.634;2024-01-06T09:43:13;3.43;;;1.83;;
1601;SDS011;794;48.592;9.634;2024-01-06T09:45:40;3.27;;;1.50;;
1601;SDS011;794;48.592;9.634;2024-01-06T09:48:10;3.87;;;2.93;;
1601;SDS011;794;48.592;9.634;2024-01-06T09:50:40;3.07;;;2.13;;
1601;SDS011;794;48.592;9.634;2024-01-06T09:53:10;3.10;;;1.80;;
1601;SDS011;794;48.592;9.634;2024-01-06T09:55:38;2.90;;;1.70;;
1601;SDS011;794;48.592;9.634;2024-01-06T09:58:05;5.10;;;2.27;;
1601;SDS011;794;48.592;9.634;2024-01-06T10:00:33;2.87;;;2.47;;
1601;SDS011;794;48.592;9.634;2024-01-06T10:03:00;2.70;;;2.50;;
1601;SDS011;794;48.592;9.634;2024-01-06T10:05:27;3.10;;;2.77;;
1601;SDS011;794;48.592;9.634;2024-01-06T10:07:57;4.90;;;2.80;;
1601;SDS011;794;48.592;9.634;2024-01-06T10:10:25;2.67;;;1.80;;
1601;SDS011;794;48.592;9.634;2024-01-06T10:12:52;2.33;;;2.10;;
1601;SDS011;794;48.592;9.634;2024-01-06T10:15:21;4.57;;;2.47;;
1601;SDS011;794;48.592;9.634;2024-01-06T10:17:48;3.00;;;1.83;;
1601;SDS011;794;48.592;9.634;2024-01-06T10:20:16;2.63;;;2.43;;
1601;SDS011;794;48.592;9.634;2024-01-06T10:22:45;2.07;;;1.93;;
1601;SDS011;794;48.592;9.634;2024-01-06T10:25:14;4.00;;;3.10;;
1601;SDS011;794;48.592;9.634;2024-01-06T10:27:41;4.10;;;3.70;;
1601;SDS011;794;48.592;9.634;2024-01-06T10:30:09;2.30;;;2.10;;
1601;SDS011;794;48.592;9.634;2024-01-06T10:32:38;3.40;;;3.03;;
1601;SDS011;794;48.592;9.634;2024-01-06T10:35:06;7.17;;;4.90;;
1601;SDS011;794;48.592;9.634;2024-01-06T10:37:33;2.43;;;2.33;;
1601;SDS011;794;48.592;9.634;2024-01-06T10:40:07;4.13;;;2.33;;
1601;SDS011;794;48.592;9.634;2024-01-06T10:42:37;3.23;;;2.27;;
1601;SDS011;794;48.592;9.634;2024-01-06T10:45:06;2.30;;;2.10;;
1601;SDS011;794;48.592;9.634;2024-01-06T10:47:34;3.53;;;2.47;;
1601;SDS011;794;48.592;9.634;2024-01-06T10:50:02;2.60;;;2.40;;
1601;SDS011;794;48.592;9.634;2024-01-06T10:52:29;5.17;;;3.50;;
1601;SDS011;794;48.592;9.634;2024-01-06T10:54:57;2.83;;;2.30;;
1601;SDS011;794;48.592;9.634;2024-01-06T10:57:25;4.70;;;1.93;;
1601;SDS011;794;48.592;9.634;2024-01-06T10:59:54;2.33;;;2.23;;
1601;SDS011;794;48.592;9.634;2024-01-06T11:02:27;7.13;;;4.10;;
1601;SDS011;794;48.592;9.634;2024-01-06T11:04:54;2.67;;;2.47;;
1601;SDS011;794;48.592;9.634;2024-01-06T11:07:21;2.60;;;2.10;;
1601;SDS011;794;48.592;9.634;2024-01-06T11:09:52;3.77;;;2.70;;
1601;SDS011;794;48.592;9.634;2024-01-06T11:12:22;4.33;;;3.77;;
1601;SDS011;794;48.592;9.634;2024-01-06T11:14:51;2.50;;;2.40;;
1601;SDS011;794;48.592;9.634;2024-01-06T11:20:18;2.23;;;2.03;;
1601;SDS011;794;48.592;9.634;2024-01-06T11:22:46;2.10;;;2.00;;
1601;SDS011;794;48.592;9.634;2024-01-06T11:25:15;6.17;;;2.83;;
1601;SDS011;794;48.592;9.634;2024-01-06T11:27:45;2.63;;;1.97;;
1601;SDS011;794;48.592;9.634;2024-01-06T11:30:22;2.50;;;2.20;;
1601;SDS011;794;48.592;9.634;2024-01-06T11:32:52;2.20;;;2.10;;
1601;SDS011;794;48.592;9.634;2024-01-06T11:35:25;5.27;;;3.00;;
1601;SDS011;794;48.592;9.634;2024-01-06T11:37:54;2.50;;;2.30;;
1601;SDS011;794;48.592;9.634;2024-01-06T11:40:26;2.30;;;1.83;;
1601;SDS011;794;48.592;9.634;2024-01-06T11:42:59;2.63;;;1.53;;
1601;SDS011;794;48.592;9.634;2024-01-06T11:45:27;1.70;;;1.60;;
1601;SDS011;794;48.592;9.634;2024-01-06T11:47:56;2.10;;;2.00;;
1601;SDS011;794;48.592;9.634;2024-01-06T11:50:28;2.90;;;1.60;;
1601;SDS011;794;48.592;9.634;2024-01-06T11:52:58;2.13;;;2.03;;
1601;SDS011;794;48.592;9.634;2024-01-06T11:55:26;3.03;;;1.97;;
1601;SDS011;794;48.592;9.634;2024-01-06T11:57:54;2.37;;;2.17;;
1601;SDS011;794;48.592;9.634;2024-01-06T12:00:22;3.00;;;2.17;;
1601;SDS011;794;48.592;9.634;2024-01-06T12:02:50;2.23;;;2.03;;
1601;SDS011;794;48.592;9.634;2024-01-06T12:05:23;1.87;;;1.77;;
1601;SDS011;794;48.592;9.634;2024-01-06T12:07:55;4.63;;;2.13;;
1601;SDS011;794;48.592;9.634;2024-01-06T12:10:23;2.40;;;2.20;;
1601;SDS011;794;48.592;9.634;2024-01-06T12:12:54;3.03;;;2.40;;
1601;SDS011;794;48.592;9.634;2024-01-06T12:15:23;3.97;;;2.80;;
1601;SDS011;794;48.592;9.634;2024-01-06T12:17:51;2.70;;;2.50;;
1601;SDS011;794;48.592;9.634;2024-01-06T12:20:20;3.63;;;3.30;;
1601;SDS011;794;48.592;9.634;2024-01-06T12:22:47;2.83;;;2.63;;
1601;SDS011;794;48.592;9.634;2024-01-06T12:25:15;4.53;;;2.53;;
1601;SDS011;794;48.592;9.634;2024-01-06T12:27:43;3.00;;;2.70;;
1601;SDS011;794;48.592;9.634;2024-01-06T12:30:13;4.30;;;3.10;;
1601;SDS011;794;48.592;9.634;2024-01-06T12:32:43;3.07;;;2.80;;
1601;SDS011;794;48.592;9.634;2024-01-06T12:35:12;2.80;;;2.60;;
1601;SDS011;794;48.592;9.634;2024-01-06T12:37:41;3.00;;;2.80;;
1601;SDS011;794;48.592;9.634;2024-01-06T12:40:08;2.80;;;2.47;;
1601;SDS011;794;48.592;9.634;2024-01-06T12:42:36;2.80;;;2.60;;
1601;SDS011;794;48.592;9.634;2024-01-06T12:45:04;2.80;;;2.53;;
1601;SDS011;794;48.592;9.634;2024-01-06T12:47:32;2.70;;;2.50;;
1601;SDS011;794;48.592;9.634;2024-01-06T12:50:00;2.60;;;2.40;;
1601;SDS011;794;48.592;9.634;2024-01-06T12:52:29;2.93;;;2.70;;
1601;SDS011;794;48.592;9.634;2024-01-06T12:54:58;4.33;;;3.93;;
1601;SDS011;794;48.592;9.634;2024-01-06T12:57:25;6.03;;;3.40;;
1601;SDS011;794;48.592;9.634;2024-01-06T12:59:52;3.10;;;2.60;;
1601;SDS011;794;48.592;9.634;2024-01-06T13:02:20;3.00;;;2.60;;
1601;SDS011;794;48.592;9.634;2024-01-06T13:04:47;5.87;;;5.13;;
1601;SDS011;794;48.592;9.634;2024-01-06T13:07:14;4.47;;;4.03;;
1601;SDS011;794;48.592;9.634;2024-01-06T13:09:42;12.93;;;6.23;;
1601;SDS011;794;48.592;9.634;2024-01-06T13:12:11;4.77;;;3.50;;
1601;SDS011;794;48.592;9.634;2024-01-06T13:14:38;3.70;;;3.40;;
1601;SDS011;794;48.592;9.634;2024-01-06T13:17:05;2.93;;;2.73;;
1601;SDS011;794;48.592;9.634;2024-01-06T13:19:34;4.80;;;3.43;;
1601;SDS011;794;48.592;9.634;2024-01-06T13:22:01;3.80;;;3.50;;
1601;SDS011;794;48.592;9.634;2024-01-06T13:24:29;3.13;;;2.83;;
1601;SDS011;794;48.592;9.634;2024-01-06T13:26:56;2.93;;;2.73;;
1601;SDS011;794;48.592;9.634;2024-01-06T13:29:29;2.73;;;2.53;;
1601;SDS011;794;48.592;9.634;2024-01-06T13:31:57;3.70;;;3.23;;
1601;SDS011;794;48.592;9.634;2024-01-06T13:34:25;2.83;;;2.63;;
1601;SDS011;794;48.592;9.634;2024-01-06T13:36:54;3.30;;;3.00;;
1601;SDS011;794;48.592;9.634;2024-01-06T13:39:22;3.20;;;2.77;;
1601;SDS011;794;48.592;9.634;2024-01-06T13:41:49;4.40;;;4.00;;
1601;SDS011;794;48.592;9.634;2024-01-06T13:44:17;4.50;;;4.00;;
1601;SDS011;794;48.592;9.634;2024-01-06T13:46:45;5.00;;;4.03;;
1601;SDS011;794;48.592;9.634;2024-01-06T13:49:14;5.17;;;4.70;;
1601;SDS011;794;48.592;9.634;2024-01-06T13:51:41;5.50;;;5.00;;
1601;SDS011;794;48.592;9.634;2024-01-06T13:54:08;5.03;;;4.53;;
1601;SDS011;794;48.592;9.634;2024-01-06T13:56:36;3.50;;;3.20;;
1601;SDS011;794;48.592;9.634;2024-01-06T13:59:03;5.10;;;4.70;;
1601;SDS011;794;48.592;9.634;2024-01-06T14:01:30;4.97;;;4.20;;
1601;SDS011;794;48.592;9.634;2024-01-06T14:03:59;5.27;;;4.77;;
1601;SDS011;794;48.592;9.634;2024-01-06T14:06:27;5.20;;;4.70;;
1601;SDS011;794;48.592;9.634;2024-01-06T14:08:55;9.27;;;6.17;;
1601;SDS011;794;48.592;9.634;2024-01-06T14:11:22;6.50;;;5.47;;
1601;SDS011;794;48.592;9.634;2024-01-06T14:13:50;3.60;;;3.40;;
1601;SDS011;794;48.592;9.634;2024-01-06T14:16:18;5.03;;;2.87;;
1601;SDS011;794;48.592;9.634;2024-01-06T14:18:45;8.47;;;5.80;;
1601;SDS011;794;48.592;9.634;2024-01-06T14:21:17;7.87;;;6.33;;
1601;SDS011;794;48.592;9.634;2024-01-06T14:23:45;9.20;;;8.10;;
1601;SDS011;794;48.592;9.634;2024-01-06T14:26:13;8.47;;;6.30;;
1601;SDS011;794;48.592;9.634;2024-01-06T14:28:40;8.27;;;5.87;;
1601;SDS011;794;48.592;9.634;2024-01-06T14:31:07;5.97;;;5.07;;
1601;SDS011;794;48.592;9.634;2024-01-06T14:33:36;6.20;;;5.20;;
1601;SDS011;794;48.592;9.634;2024-01-06T14:36:03;10.37;;;8.83;;
1601;SDS011;794;48.592;9.634;2024-01-06T14:38:32;9.05;;;8.13;;
1601;SDS011;794;48.592;9.634;2024-01-06T14:41:00;22.77;;;16.37;;
1601;SDS011;794;48.592;9.634;2024-01-06T14:43:27;19.83;;;13.10;;
1601;SDS011;794;48.592;9.634;2024-01-06T14:45:55;12.63;;;10.40;;
1601;SDS011;794;48.592;9.634;2024-01-06T14:48:22;8.87;;;7.97;;
1601;SDS011;794;48.592;9.634;2024-01-06T14:50:50;9.37;;;7.33;;
1601;SDS011;794;48.592;9.634;2024-01-06T14:53:17;27.87;;;19.23;;
1601;SDS011;794;48.592;9.634;2024-01-06T14:55:46;17.43;;;13.47;;
1601;SDS011;794;48.592;9.634;2024-01-06T14:58:13;14.80;;;9.40;;
1601;SDS011;794;48.592;9.634;2024-01-06T15:00:40;11.60;;;9.10;;
1601;SDS011;794;48.592;9.634;2024-01-06T15:03:07;9.43;;;8.30;;
1601;SDS011;794;48.592;9.634;2024-01-06T15:05:35;9.20;;;7.20;;
1601;SDS011;794;48.592;9.634;2024-01-06T15:08:02;8.70;;;7.73;;
1601;SDS011;794;48.592;9.634;2024-01-06T15:10:29;8.33;;;7.43;;
1601;SDS011;794;48.592;9.634;2024-01-06T15:12:58;8.83;;;7.37;;
1601;SDS011;794;48.592;9.634;2024-01-06T15:15:25;8.23;;;7.43;;
1601;SDS011;794;48.592;9.634;2024-01-06T15:17:52;8.73;;;7.93;;
1601;SDS011;794;48.592;9.634;2024-01-06T15:20:19;7.87;;;7.07;;
1601;SDS011;794;48.592;9.634;2024-01-06T15:22:48;10.80;;;9.33;;
1601;SDS011;794;48.592;9.634;2024-01-06T15:25:15;10.50;;;8.40;;
1601;SDS011;794;48.592;9.634;2024-01-06T15:27:43;9.57;;;8.67;;
1601;SDS011;794;48.592;9.634;2024-01-06T15:30:14;9.30;;;7.70;;
1601;SDS011;794;48.592;9.634;2024-01-06T15:32:42;9.30;;;8.30;;
1601;SDS011;794;48.592;9.634;2024-01-06T15:35:10;26.40;;;20.17;;